Alpena, Michigan
Current Conditions -  °F | °C
As of 7:54 PM on Thursday 27 Nov 2014 (Local Time) from KAPN Reporting Station
Overcast Overcast  
Wind Chill:   Ceiling: 3600
Heat Index: 16°   Visibility: 10mi
Dew Point:   Wind: 8mph
Humidity: 71%   Direction: 300°WNW
Pressure: 30.24"   Gusts: 17mph
Location:  45.06°N, 83.44°W
Report Text: KAPN 280054Z AUTO 30007G15KT 10SM OVC036 M09/M13 A3024 RMK AO2 SLP254 T10891133
Loading
Personal Weather Stations






























Interactive Weather Map New forecast layout! Learn more

10-Day Weather Forecast

Advertisements
Track Severe Weather on mobile